PAKTPAGY

Guest
Details From PAKT - KETCHIKAN INTL
To PAGY - SKAGWAY
Flight Number -
Tags decoded
Created
Modified
Stats Distance 278 nm / 516 km
Max Altitude 0 ft / 0 m
Waypoints 5
Social Downloads 1
Likes 0
Share VATSIM

Download

Looking for another format? Having issues loading an existing format? Contact us
Advertisement - Login to hide

Notes

Requested: PAKT LVD MARMN HNS PAGY

Route

PAKT LVD MARMN HNS PAGY

ID Type Via Altitude Latitude Longitude Leg Dist Tot Dist Heading (true) Name
O PAKT APT - 0 ft / 0 m 55.35554˚ -131.71374˚ - 0 nm - KETCHIKAN INTL
LVD VOR - 0 ft / 0 m 56.46772˚ -133.08311˚ 81 nm 81 nm 326° / 325° LEVEL ISLAND VOR-DME
MARMN FIX - 0 ft / 0 m 58.19276˚ -134.21978˚ 109 nm 191 nm 341° / 340° -
HNS NDB - 0 ft / 0 m 59.21208˚ -135.43086˚ 71 nm 263 nm 329° / 328° HAINES NDB
O PAGY APT - 0 ft / 0 m 59.46006˚ -135.31566˚ 15 nm 278 nm 13° / 13° SKAGWAY

Altitude Profile

Advertisement - Login to hide

Weather


0- 5 10 15 20 25 30 35+ Temperature / ° C

Clouds and Precipitation
Forecast for 2017-12-14 00:00 UTC. Updated 2 hours ago

Ground ~20,000 ft ~40,000 ft Winds

PAKT

Details ICAO PAKT (KTN)
Name KETCHIKAN INTL
Region USA (Alaska)
Timezone Unknown (UTC+0.0)
Stats Elevation 88 ft / 27 m (AMSL)
Location 55.355545° -131.713737°
Runways 1
Magnetic Variation 18.534° E

METAR

PAKT 132153Z 16009KT 7SM OVC020 08/07 A3038

Decode

TAF

TAF PAKT 131736Z 1318/1418 15010KT 6SM -RA OVC018 WS020/15030KT FM132200 15012G20KT 6SM -RA OVC030 WS020/15040KT FM141000 14020G32KT 3SM RA BR OVC015 WS020/16045KT AMD LTD TO CLD VIS AND WIND 1407/1415

Decode

Departure Runways

ID Width Length Bearing (true) Bearing (mag) Surface Threshold Offset Overrun Length
11 150 ft / 46 m 7,485 ft / 2,281 m 135.66° 117.13° Asphalt 0 ft / 0 m 200 ft / 61 m
29 150 ft / 46 m 7,485 ft / 2,281 m 315.68° 297.15° Asphalt 0 ft / 0 m 100 ft / 30 m

PAGY

Details ICAO PAGY (SGY)
Name SKAGWAY
Region USA (Alaska)
Timezone America/Juneau (UTC-9.0)
Stats Elevation 44 ft / 13 m (AMSL)
Location 59.460062° -135.315661°
Runways 1
Magnetic Variation 19.350° E

METAR

PAGY 132151Z AUTO FEW001 BKN011 OVC026 04/04 A3018 RMK RAEMMB2057RAEMMB03RAEMMB08RAEMMB18RAEMMB23RAEMMB29RAEMMB32RAE MMB41RAEMMB47R AEMM TSNO $ VIA AUTODIAL

Decode

TAF

TAF PAGY 131739Z 1318/1418 VRB04KT P6SM VCSH SCT007 OVC015 TEMPO 1318/1321 6SM -RA BR BKN006 FM132100 20010G20KT 5SM -RA OVC015 FM140600 20010KT 6SM -RA BR OVC025 WS020/17035KT AMD LTD TO CLD VIS AND WIND

Decode

Destination Runways

ID Width Length Bearing (true) Bearing (mag) Surface Threshold Offset Overrun Length
02 75 ft / 23 m 3,542 ft / 1,080 m 43.94° 24.59° Asphalt 0 ft / 0 m 299 ft / 91 m
20 75 ft / 23 m 3,542 ft / 1,080 m 223.95° 204.60° Asphalt 0 ft / 0 m 299 ft / 91 m

Popular Alternatives